createdAt,value
2022-11-13T00:00:36.843Z,5.46
2022-11-13T00:01:36.813Z,5.46
2022-11-13T00:02:36.898Z,5.48
2022-11-13T00:03:37.432Z,5.46
2022-11-13T00:04:37.020Z,5.46
2022-11-13T00:05:36.847Z,5.46
2022-11-13T00:06:36.841Z,5.49
2022-11-13T00:07:36.948Z,5.46
2022-11-13T00:08:36.761Z,5.45
2022-11-13T00:09:36.752Z,5.43
2022-11-13T00:10:36.948Z,5.43
2022-11-13T00:11:36.858Z,5.41
2022-11-13T00:12:37.028Z,5.41
2022-11-13T00:13:37.168Z,5.40
2022-11-13T00:14:37.167Z,5.40
2022-11-13T00:15:37.072Z,5.35
2022-11-13T00:16:37.217Z,5.34
2022-11-13T00:17:36.705Z,5.34
2022-11-13T00:18:36.930Z,5.32
2022-11-13T00:19:36.788Z,5.31
2022-11-13T00:20:36.940Z,5.30
2022-11-13T00:21:37.230Z,5.27
2022-11-13T00:22:36.903Z,5.27
2022-11-13T00:23:36.969Z,5.27
2022-11-13T00:24:36.940Z,5.27
2022-11-13T00:25:36.905Z,5.23
2022-11-13T00:26:36.741Z,5.25
2022-11-13T00:27:36.803Z,5.23
2022-11-13T00:28:36.540Z,5.25
2022-11-13T00:29:36.735Z,5.23
2022-11-13T00:30:36.522Z,5.25
2022-11-13T00:31:36.806Z,5.23
2022-11-13T00:32:36.757Z,5.20
2022-11-13T00:34:52.056Z,5.20
2022-11-13T00:35:36.748Z,5.20
2022-11-13T00:36:36.700Z,5.17
2022-11-13T00:37:36.478Z,5.19
2022-11-13T00:38:37.322Z,5.19
2022-11-13T00:39:36.532Z,5.17
2022-11-13T00:40:36.502Z,5.17
2022-11-13T00:41:36.940Z,5.17
2022-11-13T00:42:36.572Z,5.17
2022-11-13T00:43:36.582Z,5.16
2022-11-13T00:44:36.872Z,5.19
2022-11-13T00:45:36.503Z,5.17
2022-11-13T00:46:36.506Z,5.16
2022-11-13T00:47:36.523Z,5.14
2022-11-13T00:48:36.352Z,5.13
2022-11-13T00:49:36.544Z,5.13
2022-11-13T00:50:36.546Z,5.12
2022-11-13T00:51:36.347Z,5.12
2022-11-13T00:52:36.422Z,5.09
2022-11-13T00:53:36.543Z,5.10
2022-11-13T00:54:36.558Z,5.09
2022-11-13T00:55:36.365Z,5.09
2022-11-13T00:56:36.261Z,5.10
2022-11-13T00:57:36.562Z,5.05
2022-11-13T00:58:36.453Z,5.07
2022-11-13T00:59:36.225Z,5.07
2022-11-13T01:00:36.207Z,5.07
2022-11-13T01:01:36.422Z,5.07
2022-11-13T01:02:36.208Z,5.07
2022-11-13T01:03:36.737Z,5.07
2022-11-13T01:04:36.463Z,5.07
2022-11-13T01:05:36.259Z,5.07
2022-11-13T01:06:36.250Z,5.09
2022-11-13T01:07:36.558Z,5.07
2022-11-13T01:08:36.334Z,5.09
2022-11-13T01:09:36.413Z,5.07
2022-11-13T01:10:36.143Z,5.05
2022-11-13T01:11:36.434Z,5.05
2022-11-13T01:12:36.106Z,5.07
2022-11-13T01:13:36.671Z,5.07
2022-11-13T01:14:36.263Z,5.07
2022-11-13T01:15:36.809Z,5.07
2022-11-13T01:16:36.216Z,5.09
2022-11-13T01:17:36.051Z,5.09
2022-11-13T01:18:36.162Z,5.12
2022-11-13T01:19:36.551Z,5.12
2022-11-13T01:20:36.869Z,5.13
2022-11-13T01:21:36.525Z,5.13
2022-11-13T01:22:35.997Z,5.13
2022-11-13T01:23:36.084Z,5.13
2022-11-13T01:24:36.257Z,5.13
2022-11-13T01:25:36.169Z,5.14
2022-11-13T01:26:36.055Z,5.14
2022-11-13T01:27:36.247Z,5.13
2022-11-13T01:28:35.922Z,5.13
2022-11-13T01:29:36.091Z,5.13
2022-11-13T01:30:36.119Z,5.14
2022-11-13T01:31:36.384Z,5.16
2022-11-13T01:32:35.895Z,5.13
2022-11-13T01:33:36.693Z,5.14
2022-11-13T01:34:36.203Z,5.16
2022-11-13T01:35:36.198Z,5.17
2022-11-13T01:36:35.855Z,5.20
2022-11-13T01:37:35.874Z,5.22
2022-11-13T01:38:37.348Z,5.23
2022-11-13T01:39:35.861Z,5.23
2022-11-13T01:40:35.778Z,5.25
2022-11-13T01:41:36.133Z,5.27
2022-11-13T01:42:36.245Z,5.27
2022-11-13T01:43:35.908Z,5.27
2022-11-13T01:44:35.964Z,5.28
2022-11-13T01:45:35.929Z,5.28
2022-11-13T01:46:36.117Z,5.28
2022-11-13T01:47:36.419Z,5.30
2022-11-13T01:48:36.223Z,5.30
2022-11-13T01:49:35.841Z,5.30
2022-11-13T01:50:35.758Z,5.30
2022-11-13T01:51:35.736Z,5.30
2022-11-13T01:52:35.752Z,5.31
2022-11-13T01:53:35.965Z,5.32
2022-11-13T01:54:35.844Z,5.32
2022-11-13T01:55:35.661Z,5.31
2022-11-13T01:56:35.814Z,5.32
2022-11-13T01:57:36.096Z,5.32
2022-11-13T01:58:35.751Z,5.31
2022-11-13T01:59:35.629Z,5.31
2022-11-13T02:00:35.799Z,5.31
2022-11-13T02:01:35.863Z,5.31
2022-11-13T02:02:35.589Z,5.31
2022-11-13T02:03:35.651Z,5.31
2022-11-13T02:04:35.589Z,5.31
2022-11-13T02:05:35.780Z,5.32
2022-11-13T02:06:35.558Z,5.31
2022-11-13T02:07:35.688Z,5.30
2022-11-13T02:08:35.529Z,5.30
2022-11-13T02:09:35.548Z,5.31
2022-11-13T02:10:35.679Z,5.31
2022-11-13T02:11:35.731Z,5.31
2022-11-13T02:12:35.519Z,5.32
2022-11-13T02:13:35.933Z,5.32
2022-11-13T02:14:35.576Z,5.32
2022-11-13T02:15:35.500Z,5.34
2022-11-13T02:16:35.670Z,5.34
2022-11-13T02:17:35.431Z,5.38
2022-11-13T02:18:35.611Z,5.35
2022-11-13T02:19:35.490Z,5.35
2022-11-13T02:20:35.491Z,5.38
2022-11-13T02:21:37.309Z,5.37
2022-11-13T02:22:35.368Z,5.37
2022-11-13T02:23:35.410Z,5.38
2022-11-13T02:24:37.810Z,5.38
2022-11-13T02:25:35.364Z,5.37
2022-11-13T02:26:35.372Z,5.40
2022-11-13T02:27:35.824Z,5.38
2022-11-13T02:28:35.392Z,5.38
2022-11-13T02:29:35.325Z,5.40
2022-11-13T02:30:35.629Z,5.40
2022-11-13T02:31:35.778Z,5.40
2022-11-13T02:32:35.437Z,5.41
2022-11-13T02:33:35.569Z,5.38
2022-11-13T02:34:35.682Z,5.38
2022-11-13T02:35:35.310Z,5.40
2022-11-13T02:36:35.609Z,5.41
2022-11-13T02:37:35.439Z,5.41
2022-11-13T02:38:35.474Z,5.38
2022-11-13T02:39:35.464Z,5.38
2022-11-13T02:40:35.229Z,5.40
2022-11-13T02:41:35.186Z,5.38
2022-11-13T02:42:35.926Z,5.38
2022-11-13T02:43:35.189Z,5.37
2022-11-13T02:44:35.278Z,5.37
2022-11-13T02:45:35.301Z,5.40
2022-11-13T02:46:35.686Z,5.37
2022-11-13T02:47:35.310Z,5.38
2022-11-13T02:48:35.129Z,5.37
2022-11-13T02:49:35.229Z,5.37
2022-11-13T02:50:35.138Z,5.37
2022-11-13T02:51:35.116Z,5.37
2022-11-13T02:52:35.249Z,5.38
2022-11-13T02:53:35.558Z,5.37
2022-11-13T02:54:35.169Z,5.35
2022-11-13T02:55:35.138Z,5.35
2022-11-13T02:56:35.098Z,5.34
2022-11-13T02:57:35.076Z,5.32
2022-11-13T02:58:35.309Z,5.31
2022-11-13T02:59:35.207Z,5.31
2022-11-13T03:00:35.137Z,5.31
2022-11-13T03:01:35.578Z,5.28
2022-11-13T03:02:35.278Z,5.30
2022-11-13T03:04:01.354Z,5.28
2022-11-13T03:05:05.218Z,5.28
2022-11-13T03:05:35.168Z,5.28
2022-11-13T03:06:35.034Z,5.25
2022-11-13T03:07:35.496Z,5.25
2022-11-13T03:08:36.160Z,5.25
2022-11-13T03:09:35.092Z,5.23
2022-11-13T03:10:35.243Z,5.22
2022-11-13T03:11:35.427Z,5.20
2022-11-13T03:12:34.936Z,5.19
2022-11-13T03:13:35.370Z,5.17
2022-11-13T03:14:35.288Z,5.16
2022-11-13T03:15:34.912Z,5.13
2022-11-13T03:16:34.893Z,5.10
2022-11-13T03:17:35.276Z,5.09
2022-11-13T03:18:34.920Z,5.10
2022-11-13T03:19:34.826Z,5.07
2022-11-13T03:20:34.904Z,5.07
2022-11-13T03:21:34.860Z,5.05
2022-11-13T03:22:34.971Z,5.02
2022-11-13T03:23:34.930Z,4.99
2022-11-13T03:24:34.892Z,4.99
2022-11-13T03:25:34.891Z,4.96
2022-11-13T03:26:34.806Z,4.94
2022-11-13T03:27:34.873Z,4.92
2022-11-13T03:28:35.301Z,4.89
2022-11-13T03:29:34.741Z,4.91
2022-11-13T03:30:34.740Z,4.86
2022-11-13T03:31:34.936Z,4.86
2022-11-13T03:32:34.669Z,4.83
2022-11-13T03:33:34.705Z,4.80
2022-11-13T03:34:34.764Z,4.79
2022-11-13T03:35:43.002Z,4.79
2022-11-13T03:36:34.670Z,4.77
2022-11-13T03:37:34.651Z,4.76
2022-11-13T03:38:34.656Z,4.73
2022-11-13T03:39:34.842Z,4.72
2022-11-13T03:40:34.816Z,4.67
2022-11-13T03:41:34.608Z,4.64
2022-11-13T03:42:34.603Z,4.62
2022-11-13T03:43:34.673Z,4.58
2022-11-13T03:44:34.663Z,4.58
2022-11-13T03:45:34.767Z,4.55
2022-11-13T03:46:34.566Z,4.54
2022-11-13T03:47:34.552Z,4.52
2022-11-13T03:48:34.583Z,4.51
2022-11-13T03:49:34.635Z,4.50
2022-11-13T03:50:34.958Z,4.47
2022-11-13T03:51:34.516Z,4.46
2022-11-13T03:52:34.447Z,4.43
2022-11-13T03:53:34.467Z,4.42
2022-11-13T03:54:35.000Z,4.42
2022-11-13T03:55:34.489Z,4.42
2022-11-13T03:56:34.459Z,4.40
2022-11-13T03:57:34.469Z,4.39
2022-11-13T03:58:37.387Z,4.36
2022-11-13T03:59:34.747Z,4.36
2022-11-13T04:00:34.476Z,4.34
2022-11-13T04:01:34.602Z,4.33
2022-11-13T04:02:34.596Z,4.32
2022-11-13T04:03:34.392Z,4.32
2022-11-13T04:04:34.430Z,4.29
2022-11-13T04:05:34.583Z,4.32
2022-11-13T04:06:34.352Z,4.28
2022-11-13T04:07:34.496Z,4.26
2022-11-13T04:08:34.325Z,4.26
2022-11-13T04:09:34.414Z,4.25
2022-11-13T04:10:34.630Z,4.22
2022-11-13T04:11:34.547Z,4.19
2022-11-13T04:12:34.444Z,4.16
2022-11-13T04:13:34.432Z,4.15
2022-11-13T04:14:34.466Z,4.10
2022-11-13T04:15:34.405Z,4.10
2022-11-13T04:16:34.431Z,4.08
2022-11-13T04:17:34.864Z,4.06
2022-11-13T04:18:34.239Z,4.06
2022-11-13T04:19:35.020Z,4.06
2022-11-13T04:20:34.480Z,4.01
2022-11-13T04:21:34.470Z,4.00
2022-11-13T04:22:34.461Z,3.98
2022-11-13T04:23:34.575Z,3.98
2022-11-13T04:24:34.276Z,3.96
2022-11-13T04:25:34.140Z,3.96
2022-11-13T04:26:34.366Z,3.94
2022-11-13T04:27:34.765Z,3.92
2022-11-13T04:28:34.503Z,3.89
2022-11-13T04:29:34.183Z,3.89
2022-11-13T04:30:34.269Z,3.88
2022-11-13T04:31:34.100Z,3.85
2022-11-13T04:32:34.087Z,3.83
2022-11-13T04:33:34.633Z,3.82
2022-11-13T04:34:34.122Z,3.82
2022-11-13T04:35:34.406Z,3.80
2022-11-13T04:36:34.107Z,3.78
2022-11-13T04:37:34.181Z,3.78
2022-11-13T04:38:34.280Z,3.78
2022-11-13T04:39:34.488Z,3.75
2022-11-13T04:40:34.216Z,3.76
2022-11-13T04:41:33.985Z,3.75
2022-11-13T04:42:34.109Z,3.75
2022-11-13T04:43:34.170Z,3.75
2022-11-13T04:44:34.325Z,3.75
2022-11-13T04:45:34.045Z,3.72
2022-11-13T04:46:34.270Z,3.71
2022-11-13T04:47:34.068Z,3.70
2022-11-13T04:48:34.258Z,3.67
2022-11-13T04:49:34.083Z,3.65
2022-11-13T04:50:33.907Z,3.61
2022-11-13T04:51:33.915Z,3.61
2022-11-13T04:52:34.041Z,3.61
2022-11-13T04:53:34.083Z,3.61
2022-11-13T04:54:34.206Z,3.60
2022-11-13T04:55:34.269Z,3.60
2022-11-13T04:56:34.293Z,3.60
2022-11-13T04:57:33.992Z,3.60
2022-11-13T04:58:34.145Z,3.58
2022-11-13T04:59:34.016Z,3.54
2022-11-13T05:00:34.107Z,3.53
2022-11-13T05:01:33.996Z,3.52
2022-11-13T05:02:34.170Z,3.50
2022-11-13T05:03:33.953Z,3.49
2022-11-13T05:04:33.779Z,3.47
2022-11-13T05:05:33.887Z,3.46
2022-11-13T05:06:33.997Z,3.44
2022-11-13T05:07:33.905Z,3.44
2022-11-13T05:08:33.698Z,3.44
2022-11-13T05:09:33.960Z,3.43
2022-11-13T05:10:34.242Z,3.44
2022-11-13T05:11:33.782Z,3.46
2022-11-13T05:12:33.866Z,3.42
2022-11-13T05:13:33.746Z,3.42
2022-11-13T05:14:33.828Z,3.40
2022-11-13T05:15:34.640Z,3.39
2022-11-13T05:16:33.814Z,3.36
2022-11-13T05:17:33.688Z,3.34
2022-11-13T05:18:33.936Z,3.34
2022-11-13T05:19:33.768Z,3.34
2022-11-13T05:20:33.635Z,3.33
2022-11-13T05:21:34.097Z,3.34
2022-11-13T05:22:34.452Z,3.31
2022-11-13T05:23:34.128Z,3.31
2022-11-13T05:24:34.158Z,3.30
2022-11-13T05:25:33.875Z,3.30
2022-11-13T05:26:33.680Z,3.28
2022-11-13T05:27:33.911Z,3.28
2022-11-13T05:28:33.847Z,3.27
2022-11-13T05:29:34.147Z,3.27
2022-11-13T05:30:33.722Z,3.25
2022-11-13T05:31:33.887Z,3.24
2022-11-13T05:32:33.898Z,3.24
2022-11-13T05:33:33.723Z,3.21
2022-11-13T05:34:33.474Z,3.23
2022-11-13T05:35:33.518Z,3.20
2022-11-13T05:36:33.432Z,3.20
2022-11-13T05:37:33.780Z,3.20
2022-11-13T05:38:33.416Z,3.18
2022-11-13T05:39:33.578Z,3.18
2022-11-13T05:40:33.571Z,3.16
2022-11-13T05:41:33.990Z,3.16
2022-11-13T05:42:33.561Z,3.16
2022-11-13T05:43:33.482Z,3.13
2022-11-13T05:44:33.691Z,3.12
2022-11-13T05:45:33.954Z,3.12
2022-11-13T05:46:33.722Z,3.12
2022-11-13T05:47:33.784Z,3.12
2022-11-13T05:48:33.555Z,3.09
2022-11-13T05:49:33.431Z,3.10
2022-11-13T05:50:33.384Z,3.10
2022-11-13T05:51:33.477Z,3.09
2022-11-13T05:52:33.562Z,3.09
2022-11-13T05:53:33.350Z,3.06
2022-11-13T05:54:33.294Z,3.05
2022-11-13T05:55:33.309Z,3.05
2022-11-13T05:56:33.242Z,3.03
2022-11-13T05:57:33.289Z,3.02
2022-11-13T05:58:33.255Z,3.00
2022-11-13T05:59:33.757Z,3.02
2022-11-13T06:00:33.285Z,2.98
2022-11-13T06:01:33.377Z,3.00
2022-11-13T06:02:33.808Z,2.98
2022-11-13T06:03:33.243Z,2.98
2022-11-13T06:04:33.206Z,2.98
2022-11-13T06:05:33.211Z,2.97
2022-11-13T06:06:33.252Z,2.97
2022-11-13T06:07:33.173Z,2.95
2022-11-13T06:08:33.316Z,2.92
2022-11-13T06:09:33.323Z,2.89
2022-11-13T06:10:33.485Z,2.88
2022-11-13T06:11:33.155Z,2.88
2022-11-13T06:12:33.362Z,2.87
2022-11-13T06:13:33.299Z,2.85
2022-11-13T06:14:33.213Z,2.84
2022-11-13T06:15:33.286Z,2.85
2022-11-13T06:16:33.724Z,2.85
2022-11-13T06:17:33.199Z,2.82
2022-11-13T06:18:33.974Z,2.82
2022-11-13T06:19:33.130Z,2.81
2022-11-13T06:20:33.330Z,2.77
2022-11-13T06:21:33.046Z,2.79
2022-11-13T06:22:33.053Z,2.76
2022-11-13T06:23:32.995Z,2.76
2022-11-13T06:24:33.198Z,2.73
2022-11-13T06:25:32.997Z,2.74
2022-11-13T06:26:33.063Z,2.71
2022-11-13T06:27:33.166Z,2.70
2022-11-13T06:28:33.163Z,2.70
2022-11-13T06:29:33.075Z,2.71
2022-11-13T06:30:33.169Z,2.71
2022-11-13T06:31:34.182Z,2.70
2022-11-13T06:32:33.125Z,2.70
2022-11-13T06:33:33.031Z,2.69
2022-11-13T06:34:33.408Z,2.69
2022-11-13T06:35:32.965Z,2.69
2022-11-13T06:36:33.239Z,2.67
2022-11-13T06:37:34.821Z,2.67
2022-11-13T06:38:33.080Z,2.67
2022-11-13T06:39:32.916Z,2.67
2022-11-13T06:40:33.271Z,2.67
2022-11-13T06:41:33.093Z,2.67
2022-11-13T06:42:33.601Z,2.67
2022-11-13T06:43:32.829Z,2.69
2022-11-13T06:44:32.829Z,2.67
2022-11-13T06:45:32.989Z,2.67
2022-11-13T06:46:33.014Z,2.69
2022-11-13T06:47:32.974Z,2.69
2022-11-13T06:48:32.811Z,2.69
2022-11-13T06:49:33.202Z,2.69
2022-11-13T06:50:32.797Z,2.66
2022-11-13T06:51:32.844Z,2.64
2022-11-13T06:52:32.825Z,2.66
2022-11-13T06:53:32.707Z,2.66
2022-11-13T06:54:32.734Z,2.66
2022-11-13T06:55:32.726Z,2.67
2022-11-13T06:56:32.699Z,2.67
2022-11-13T06:57:32.749Z,2.67
2022-11-13T06:58:32.669Z,2.67
2022-11-13T06:59:32.654Z,2.67
2022-11-13T07:00:36.679Z,2.67
2022-11-13T07:01:32.786Z,2.69
2022-11-13T07:02:32.726Z,2.67
2022-11-13T07:03:32.778Z,2.69
2022-11-13T07:04:32.684Z,2.71
2022-11-13T07:05:32.699Z,2.70
2022-11-13T07:06:37.562Z,2.71
2022-11-13T07:07:32.602Z,2.74
2022-11-13T07:08:32.831Z,2.74
2022-11-13T07:09:32.810Z,2.76
2022-11-13T07:10:32.595Z,2.79
2022-11-13T07:11:32.703Z,2.77
2022-11-13T07:12:32.744Z,2.82
2022-11-13T07:13:32.506Z,2.82
2022-11-13T07:14:32.708Z,2.85
2022-11-13T07:15:32.583Z,2.87
2022-11-13T07:16:56.319Z,2.87
2022-11-13T07:17:32.513Z,2.88
2022-11-13T07:18:32.514Z,2.89
2022-11-13T07:19:32.474Z,2.89
2022-11-13T07:20:32.500Z,2.88
2022-11-13T07:21:33.008Z,2.88
2022-11-13T07:22:32.799Z,2.89
2022-11-13T07:23:32.492Z,2.87
2022-11-13T07:24:32.449Z,2.89
2022-11-13T07:25:32.418Z,2.87
2022-11-13T07:26:32.431Z,2.89
2022-11-13T07:27:32.462Z,2.91
2022-11-13T07:28:32.402Z,2.91
2022-11-13T07:29:32.392Z,2.94
2022-11-13T07:30:32.369Z,2.97
2022-11-13T07:31:32.514Z,2.97
2022-11-13T07:32:32.362Z,3.00
2022-11-13T07:33:32.610Z,3.05
2022-11-13T07:34:32.465Z,3.05
2022-11-13T07:35:32.688Z,3.09
2022-11-13T07:36:32.384Z,3.07
2022-11-13T07:37:32.708Z,3.12
2022-11-13T07:38:32.380Z,3.12
2022-11-13T07:39:32.587Z,3.13
2022-11-13T07:40:32.447Z,3.16
2022-11-13T07:41:32.349Z,3.16
2022-11-13T07:42:32.446Z,3.16
2022-11-13T07:43:32.285Z,3.20
2022-11-13T07:44:53.571Z,3.20
2022-11-13T07:45:32.755Z,3.23
2022-11-13T07:46:32.247Z,3.21
2022-11-13T07:47:32.270Z,3.25
2022-11-13T07:48:32.846Z,3.25
2022-11-13T07:49:32.592Z,3.27
2022-11-13T07:50:32.208Z,3.27
2022-11-13T07:51:32.426Z,3.30
2022-11-13T07:52:32.182Z,3.31
2022-11-13T07:53:32.746Z,3.33
2022-11-13T07:54:32.139Z,3.34
2022-11-13T07:55:32.459Z,3.36
2022-11-13T07:56:32.123Z,3.39
2022-11-13T07:57:32.169Z,3.39
2022-11-13T07:58:32.376Z,3.40
2022-11-13T07:59:32.150Z,3.42
2022-11-13T08:00:32.105Z,3.43
2022-11-13T08:01:32.143Z,3.46
2022-11-13T08:02:32.056Z,3.46
2022-11-13T08:03:32.062Z,3.46
2022-11-13T08:04:32.077Z,3.47
2022-11-13T08:05:32.159Z,3.47
2022-11-13T08:06:32.019Z,3.49
2022-11-13T08:07:32.069Z,3.53
2022-11-13T08:08:32.512Z,3.58
2022-11-13T08:09:32.040Z,3.61
2022-11-13T08:10:31.930Z,3.65
2022-11-13T08:11:31.966Z,3.68
2022-11-13T08:12:31.968Z,3.75
2022-11-13T08:13:31.954Z,3.76
2022-11-13T08:14:31.924Z,3.82
2022-11-13T08:15:32.287Z,3.88
2022-11-13T08:16:32.015Z,3.94
2022-11-13T08:17:31.962Z,3.96
2022-11-13T08:18:32.003Z,4.00
2022-11-13T08:19:31.915Z,4.04
2022-11-13T08:20:32.051Z,4.12
2022-11-13T08:21:31.909Z,4.19
2022-11-13T08:22:32.010Z,4.25
2022-11-13T08:23:32.057Z,4.28
2022-11-13T08:24:31.856Z,4.37
2022-11-13T08:25:32.206Z,4.43
2022-11-13T08:26:31.868Z,4.50
2022-11-13T08:27:31.965Z,4.54
2022-11-13T08:28:32.020Z,4.58
2022-11-13T08:29:31.871Z,4.64
2022-11-13T08:30:32.163Z,4.70
2022-11-13T08:31:31.813Z,4.75
2022-11-13T08:32:32.156Z,4.79
2022-11-13T08:33:31.833Z,4.84
2022-11-13T08:34:32.001Z,4.89
2022-11-13T08:35:32.124Z,4.92
2022-11-13T08:36:31.933Z,4.94
2022-11-13T08:37:32.245Z,4.95
2022-11-13T08:38:32.054Z,4.98
2022-11-13T08:39:31.781Z,4.99
2022-11-13T08:40:31.885Z,5.04
2022-11-13T08:41:31.727Z,5.09
2022-11-13T08:42:31.666Z,5.13
2022-11-13T08:43:31.659Z,5.16
2022-11-13T08:44:31.715Z,5.17
2022-11-13T08:45:31.641Z,5.22
2022-11-13T08:46:31.622Z,5.25
2022-11-13T08:47:31.832Z,5.27
2022-11-13T08:48:31.996Z,5.30
2022-11-13T08:49:31.683Z,5.30
2022-11-13T08:50:31.604Z,5.32
2022-11-13T08:51:31.907Z,5.34
2022-11-13T08:52:31.585Z,5.37
2022-11-13T08:53:31.622Z,5.41
2022-11-13T08:54:31.553Z,5.45
2022-11-13T08:55:31.572Z,5.48
2022-11-13T08:56:32.064Z,5.49
2022-11-13T08:57:31.585Z,5.49
2022-11-13T08:58:32.191Z,5.49
2022-11-13T08:59:31.515Z,5.50
2022-11-13T09:00:31.480Z,5.53
2022-11-13T09:01:31.621Z,5.56
2022-11-13T09:02:31.587Z,5.57
2022-11-13T09:03:31.627Z,5.64
2022-11-13T09:04:31.455Z,5.66
2022-11-13T09:05:31.606Z,5.68
2022-11-13T09:06:31.531Z,5.74
2022-11-13T09:07:31.511Z,5.77
2022-11-13T09:08:31.657Z,5.82
2022-11-13T09:09:32.455Z,5.85
2022-11-13T09:10:31.751Z,5.91
2022-11-13T09:11:31.522Z,6.00
2022-11-13T09:12:31.490Z,6.11
2022-11-13T09:13:31.553Z,6.25
2022-11-13T09:14:31.485Z,6.44
2022-11-13T09:15:31.542Z,6.62
2022-11-13T09:16:31.687Z,6.72
2022-11-13T09:17:31.479Z,6.80
2022-11-13T09:18:31.816Z,6.89
2022-11-13T09:19:31.304Z,6.95
2022-11-13T09:20:31.395Z,7.04
2022-11-13T09:21:31.611Z,7.12
2022-11-13T09:22:31.529Z,7.26
2022-11-13T09:23:31.574Z,7.47
2022-11-13T09:24:31.427Z,7.66
2022-11-13T09:25:36.835Z,7.84
2022-11-13T09:26:31.346Z,7.99
2022-11-13T09:27:31.573Z,8.07
2022-11-13T09:28:31.920Z,8.21
2022-11-13T09:29:31.551Z,8.32
2022-11-13T09:30:31.226Z,8.42
2022-11-13T09:31:31.922Z,8.57
2022-11-13T09:32:31.967Z,8.66
2022-11-13T09:33:32.250Z,8.75
2022-11-13T09:34:31.671Z,8.90
2022-11-13T09:35:31.672Z,9.01
2022-11-13T09:36:32.138Z,9.13
2022-11-13T09:37:31.625Z,9.21
2022-11-13T09:38:32.167Z,9.28
2022-11-13T09:39:32.207Z,9.32
2022-11-13T09:40:31.380Z,9.42
2022-11-13T09:41:31.214Z,9.46
2022-11-13T09:42:31.435Z,9.56
2022-11-13T09:43:31.903Z,9.66
2022-11-13T09:44:31.071Z,9.76
2022-11-13T09:45:31.132Z,10.03
2022-11-13T09:46:31.825Z,10.53
2022-11-13T09:47:31.071Z,11.21
2022-11-13T09:48:31.796Z,11.97
2022-11-13T09:49:31.151Z,12.59
2022-11-13T09:50:31.399Z,13.14
2022-11-13T09:51:31.478Z,13.70
2022-11-13T09:52:31.484Z,14.32
2022-11-13T09:53:31.706Z,14.68
2022-11-13T09:54:31.315Z,14.88
2022-11-13T09:55:31.073Z,14.91
2022-11-13T09:56:31.106Z,15.46
2022-11-13T09:57:31.102Z,16.15
2022-11-13T09:58:31.978Z,16.75
2022-11-13T09:59:30.923Z,17.33
2022-11-13T10:00:31.105Z,17.69
2022-11-13T10:01:31.018Z,18.12
2022-11-13T10:02:31.175Z,18.61
2022-11-13T10:03:59.347Z,18.82
2022-11-13T10:04:30.871Z,19.08
2022-11-13T10:05:31.141Z,19.50
2022-11-13T10:06:31.139Z,19.72
2022-11-13T10:07:30.820Z,19.65
2022-11-13T10:08:31.603Z,19.83
2022-11-13T10:09:32.016Z,20.05
2022-11-13T10:10:31.022Z,20.43
2022-11-13T10:11:30.786Z,20.76
2022-11-13T10:12:31.516Z,21.05
2022-11-13T10:13:31.056Z,21.09
2022-11-13T10:14:30.888Z,20.98
2022-11-13T10:15:30.972Z,20.51
2022-11-13T10:16:30.910Z,20.61
2022-11-13T10:17:30.733Z,20.87
2022-11-13T10:18:31.232Z,21.11
2022-11-13T10:19:30.717Z,21.38
2022-11-13T10:20:30.871Z,21.23
2022-11-13T10:21:30.714Z,21.23
2022-11-13T10:22:33.447Z,21.17
2022-11-13T10:23:31.328Z,21.23
2022-11-13T10:24:30.899Z,21.01
2022-11-13T10:25:30.670Z,20.24
2022-11-13T10:26:30.799Z,19.80
2022-11-13T10:27:30.992Z,19.24
2022-11-13T10:29:30.928Z,19.68
2022-11-13T10:30:30.642Z,19.93
2022-11-13T10:31:30.648Z,20.13
2022-11-13T10:32:30.663Z,20.23
2022-11-13T10:33:31.179Z,20.72
2022-11-13T10:34:30.596Z,21.06
2022-11-13T10:35:30.623Z,21.30
2022-11-13T10:36:30.926Z,21.53
2022-11-13T10:37:30.769Z,21.66
2022-11-13T10:38:30.596Z,21.91
2022-11-13T10:39:31.109Z,22.04
2022-11-13T10:40:30.719Z,22.04
2022-11-13T10:41:30.649Z,22.10
2022-11-13T10:42:30.604Z,22.22
2022-11-13T10:43:30.893Z,22.31
2022-11-13T10:44:30.606Z,22.37
2022-11-13T10:45:31.158Z,22.34
2022-11-13T10:46:30.605Z,22.27
2022-11-13T10:48:02.054Z,22.27
2022-11-13T10:48:31.206Z,22.34
2022-11-13T10:49:30.418Z,22.44
2022-11-13T10:50:30.444Z,22.46
2022-11-13T10:51:30.518Z,22.46
2022-11-13T10:52:30.429Z,22.49
2022-11-13T10:53:31.146Z,22.53
2022-11-13T10:54:30.717Z,22.47
2022-11-13T10:55:30.429Z,22.29
2022-11-13T10:56:30.414Z,22.25
2022-11-13T10:57:30.556Z,21.69
2022-11-13T10:58:30.763Z,20.74
2022-11-13T10:59:30.343Z,20.09
2022-11-13T11:00:30.350Z,19.87
2022-11-13T11:01:30.822Z,19.83
2022-11-13T11:02:30.315Z,19.76
2022-11-13T11:03:30.742Z,19.50
2022-11-13T11:04:30.328Z,19.48
2022-11-13T11:05:30.304Z,19.42
2022-11-13T11:06:56.336Z,19.43
2022-11-13T11:07:30.311Z,19.32
2022-11-13T11:08:30.605Z,19.28
2022-11-13T11:09:30.701Z,19.29
2022-11-13T11:10:30.576Z,19.46
2022-11-13T11:11:30.306Z,19.32
2022-11-13T11:12:31.412Z,19.01
2022-11-13T11:13:30.322Z,18.79
2022-11-13T11:14:30.276Z,18.62
2022-11-13T11:15:30.235Z,18.64
2022-11-13T11:16:30.187Z,18.58
2022-11-13T11:17:30.152Z,18.52
2022-11-13T11:18:30.617Z,18.68
2022-11-13T11:19:30.205Z,18.95
2022-11-13T11:20:30.246Z,19.14
2022-11-13T11:21:30.316Z,19.46
2022-11-13T11:22:30.132Z,19.94
2022-11-13T11:23:30.225Z,20.24
2022-11-13T11:24:30.399Z,20.39
2022-11-13T11:25:30.118Z,20.79
2022-11-13T11:26:30.106Z,21.26
2022-11-13T11:27:30.739Z,21.64
2022-11-13T11:28:31.592Z,21.90
2022-11-13T11:29:30.445Z,22.16
2022-11-13T11:30:30.865Z,22.34
2022-11-13T11:31:30.199Z,22.57
2022-11-13T11:32:30.254Z,22.77
2022-11-13T11:33:30.155Z,22.80
2022-11-13T11:34:30.123Z,22.68
2022-11-13T11:35:30.490Z,22.52
2022-11-13T11:36:30.180Z,22.49
2022-11-13T11:37:30.165Z,22.53
2022-11-13T11:38:30.367Z,22.49
2022-11-13T11:39:30.036Z,22.53
2022-11-13T11:40:30.193Z,22.59
2022-11-13T11:41:30.008Z,22.80
2022-11-13T11:42:30.007Z,22.93
2022-11-13T11:43:29.941Z,23.04
2022-11-13T11:44:30.452Z,23.15
2022-11-13T11:45:29.956Z,23.35
2022-11-13T11:46:29.973Z,23.43
2022-11-13T11:47:29.916Z,23.23
2022-11-13T11:48:30.371Z,23.11
2022-11-13T11:49:29.926Z,23.04
2022-11-13T11:50:29.892Z,22.68
2022-11-13T11:51:29.962Z,22.72
2022-11-13T11:52:29.895Z,22.90
2022-11-13T11:53:29.848Z,22.97
2022-11-13T11:54:29.869Z,22.84
2022-11-13T11:55:29.853Z,22.78
2022-11-13T11:56:29.918Z,22.77
2022-11-13T11:57:29.920Z,22.34
2022-11-13T11:58:30.213Z,22.14
2022-11-13T11:59:29.817Z,21.95
2022-11-13T12:00:29.916Z,22.10
2022-11-13T12:01:29.806Z,22.10
2022-11-13T12:02:29.774Z,22.29
2022-11-13T12:03:29.849Z,22.56
2022-11-13T12:04:29.787Z,22.77
2022-11-13T12:05:29.877Z,22.83
2022-11-13T12:06:29.774Z,22.90
2022-11-13T12:07:30.783Z,22.83
2022-11-13T12:08:31.003Z,22.59
2022-11-13T12:09:29.740Z,22.32
2022-11-13T12:10:29.718Z,21.98
2022-11-13T12:11:29.728Z,21.30
2022-11-13T12:12:29.696Z,21.06
2022-11-13T12:13:29.792Z,21.08
2022-11-13T12:14:29.685Z,21.09
2022-11-13T12:15:29.706Z,21.09
2022-11-13T12:16:30.006Z,21.05
2022-11-13T12:17:29.738Z,21.26
2022-11-13T12:18:30.008Z,21.48
2022-11-13T12:19:29.626Z,21.54
2022-11-13T12:20:29.658Z,21.63
2022-11-13T12:21:29.767Z,21.81
2022-11-13T12:22:31.153Z,21.85
2022-11-13T12:23:30.011Z,21.88
2022-11-13T12:24:29.598Z,21.94
2022-11-13T12:25:29.578Z,21.81
2022-11-13T12:26:29.616Z,21.66
2022-11-13T12:27:29.604Z,21.63
2022-11-13T12:28:29.843Z,21.34
2022-11-13T12:29:29.540Z,20.93
2022-11-13T12:30:29.574Z,20.51
2022-11-13T12:31:29.522Z,20.25
2022-11-13T12:32:29.582Z,20.00
2022-11-13T12:33:29.598Z,19.68
2022-11-13T12:34:29.569Z,19.43
2022-11-13T12:35:29.780Z,19.18
2022-11-13T12:36:29.703Z,18.97
2022-11-13T12:37:29.527Z,18.82
2022-11-13T12:38:29.777Z,18.67
2022-11-13T12:39:29.494Z,18.58
2022-11-13T12:40:29.444Z,18.46
2022-11-13T12:41:30.102Z,18.40
2022-11-13T12:42:29.407Z,18.39
2022-11-13T12:43:29.804Z,18.31
2022-11-13T12:44:29.401Z,18.24
2022-11-13T12:45:29.441Z,18.10
2022-11-13T12:46:29.407Z,18.00
2022-11-13T12:47:29.397Z,17.91
2022-11-13T12:48:30.015Z,17.81
2022-11-13T12:49:29.376Z,17.67
2022-11-13T12:50:32.423Z,17.55
2022-11-13T12:51:29.581Z,17.44
2022-11-13T12:52:29.501Z,17.41
2022-11-13T12:53:29.318Z,17.43
2022-11-13T12:54:29.334Z,17.38
2022-11-13T12:55:29.342Z,17.30
2022-11-13T12:56:29.412Z,17.30
2022-11-13T12:57:30.816Z,17.26
2022-11-13T12:58:29.563Z,17.28
2022-11-13T12:59:31.206Z,17.26
2022-11-13T13:00:30.058Z,17.25
2022-11-13T13:01:29.394Z,17.20
2022-11-13T13:02:29.408Z,17.15
2022-11-13T13:03:29.348Z,17.15
2022-11-13T13:04:29.361Z,17.13
2022-11-13T13:05:29.251Z,17.08
2022-11-13T13:06:29.385Z,17.06
2022-11-13T13:07:29.602Z,17.00
2022-11-13T13:08:29.630Z,16.92
2022-11-13T13:09:29.204Z,16.88
2022-11-13T13:10:29.789Z,16.85
2022-11-13T13:11:29.488Z,16.83
2022-11-13T13:12:29.288Z,16.83
2022-11-13T13:13:29.133Z,16.85